sensor_id;sensor_type;location;lat;lon;timestamp;P1;durP1;ratioP1;P2;durP2;ratioP2
37115;SDS011;23025;41.996;23.098;2022-10-19T00:02:10;1.52;;;1.42;;
37115;SDS011;23025;41.996;23.098;2022-10-19T00:04:36;0.70;;;0.65;;
37115;SDS011;23025;41.996;23.098;2022-10-19T00:07:03;1.13;;;0.75;;
37115;SDS011;23025;41.996;23.098;2022-10-19T00:09:29;1.33;;;1.23;;
37115;SDS011;23025;41.996;23.098;2022-10-19T00:11:56;1.08;;;0.82;;
37115;SDS011;23025;41.996;23.098;2022-10-19T00:14:22;3.15;;;1.80;;
37115;SDS011;23025;41.996;23.098;2022-10-19T00:16:50;1.35;;;1.25;;
37115;SDS011;23025;41.996;23.098;2022-10-19T00:19:19;1.58;;;0.98;;
37115;SDS011;23025;41.996;23.098;2022-10-19T00:21:46;0.68;;;0.68;;
37115;SDS011;23025;41.996;23.098;2022-10-19T00:24:12;1.55;;;1.42;;
37115;SDS011;23025;41.996;23.098;2022-10-19T00:26:39;1.63;;;1.33;;
37115;SDS011;23025;41.996;23.098;2022-10-19T00:29:05;1.10;;;1.08;;
37115;SDS011;23025;41.996;23.098;2022-10-19T00:31:32;1.88;;;1.77;;
37115;SDS011;23025;41.996;23.098;2022-10-19T00:33:59;1.02;;;1.00;;
37115;SDS011;23025;41.996;23.098;2022-10-19T00:36:27;0.45;;;0.45;;
37115;SDS011;23025;41.996;23.098;2022-10-19T00:38:54;0.30;;;0.28;;
37115;SDS011;23025;41.996;23.098;2022-10-19T00:41:22;1.27;;;1.17;;
37115;SDS011;23025;41.996;23.098;2022-10-19T00:43:49;0.50;;;0.45;;
37115;SDS011;23025;41.996;23.098;2022-10-19T00:46:16;0.65;;;0.35;;
37115;SDS011;23025;41.996;23.098;2022-10-19T00:48:42;1.27;;;1.13;;
37115;SDS011;23025;41.996;23.098;2022-10-19T00:51:09;0.80;;;0.80;;
37115;SDS011;23025;41.996;23.098;2022-10-19T00:53:37;1.50;;;1.40;;
37115;SDS011;23025;41.996;23.098;2022-10-19T00:56:04;0.40;;;0.28;;
37115;SDS011;23025;41.996;23.098;2022-10-19T00:58:33;1.10;;;1.10;;
37115;SDS011;23025;41.996;23.098;2022-10-19T01:01:00;2.15;;;2.05;;
37115;SDS011;23025;41.996;23.098;2022-10-19T01:03:28;3.55;;;1.08;;
37115;SDS011;23025;41.996;23.098;2022-10-19T01:05:54;1.02;;;0.82;;
37115;SDS011;23025;41.996;23.098;2022-10-19T01:08:21;1.35;;;1.25;;
37115;SDS011;23025;41.996;23.098;2022-10-19T01:10:51;1.55;;;1.45;;
37115;SDS011;23025;41.996;23.098;2022-10-19T01:13:22;0.90;;;0.80;;
37115;SDS011;23025;41.996;23.098;2022-10-19T01:15:52;0.80;;;0.80;;
37115;SDS011;23025;41.996;23.098;2022-10-19T01:18:21;1.30;;;0.85;;
37115;SDS011;23025;41.996;23.098;2022-10-19T01:21:07;0.47;;;0.40;;
37115;SDS011;23025;41.996;23.098;2022-10-19T01:26:31;0.65;;;0.65;;
37115;SDS011;23025;41.996;23.098;2022-10-19T01:29:03;1.00;;;0.80;;
37115;SDS011;23025;41.996;23.098;2022-10-19T01:31:35;1.65;;;1.55;;
37115;SDS011;23025;41.996;23.098;2022-10-19T01:34:03;0.63;;;0.60;;
37115;SDS011;23025;41.996;23.098;2022-10-19T01:36:35;1.95;;;1.77;;
37115;SDS011;23025;41.996;23.098;2022-10-19T01:39:05;1.55;;;1.45;;
37115;SDS011;23025;41.996;23.098;2022-10-19T01:41:35;1.40;;;0.98;;
37115;SDS011;23025;41.996;23.098;2022-10-19T01:44:08;0.60;;;0.57;;
37115;SDS011;23025;41.996;23.098;2022-10-19T01:46:38;0.63;;;0.63;;
37115;SDS011;23025;41.996;23.098;2022-10-19T01:49:07;0.50;;;0.50;;
37115;SDS011;23025;41.996;23.098;2022-10-19T01:51:36;1.55;;;1.45;;
37115;SDS011;23025;41.996;23.098;2022-10-19T01:54:04;0.80;;;0.63;;
37115;SDS011;23025;41.996;23.098;2022-10-19T01:56:32;0.73;;;0.73;;
37115;SDS011;23025;41.996;23.098;2022-10-19T01:58:59;1.15;;;0.95;;
37115;SDS011;23025;41.996;23.098;2022-10-19T02:01:28;1.00;;;0.98;;
37115;SDS011;23025;41.996;23.098;2022-10-19T02:03:57;0.57;;;0.57;;
37115;SDS011;23025;41.996;23.098;2022-10-19T02:06:25;0.88;;;0.88;;
37115;SDS011;23025;41.996;23.098;2022-10-19T02:08:52;0.82;;;0.65;;
37115;SDS011;23025;41.996;23.098;2022-10-19T02:11:19;1.02;;;0.43;;
37115;SDS011;23025;41.996;23.098;2022-10-19T02:13:47;0.20;;;0.10;;
37115;SDS011;23025;41.996;23.098;2022-10-19T02:16:17;0.40;;;0.38;;
37115;SDS011;23025;41.996;23.098;2022-10-19T02:18:45;1.30;;;1.20;;
37115;SDS011;23025;41.996;23.098;2022-10-19T02:21:14;1.52;;;0.85;;
37115;SDS011;23025;41.996;23.098;2022-10-19T02:23:40;0.45;;;0.38;;
37115;SDS011;23025;41.996;23.098;2022-10-19T02:26:07;0.80;;;0.57;;
37115;SDS011;23025;41.996;23.098;2022-10-19T02:28:33;3.00;;;0.90;;
37115;SDS011;23025;41.996;23.098;2022-10-19T02:31:00;0.93;;;0.93;;
37115;SDS011;23025;41.996;23.098;2022-10-19T02:33:27;1.85;;;1.08;;
37115;SDS011;23025;41.996;23.098;2022-10-19T02:35:54;1.05;;;0.95;;
37115;SDS011;23025;41.996;23.098;2022-10-19T02:38:22;1.25;;;1.15;;
37115;SDS011;23025;41.996;23.098;2022-10-19T02:40:50;0.50;;;0.43;;
37115;SDS011;23025;41.996;23.098;2022-10-19T02:43:20;0.25;;;0.20;;
37115;SDS011;23025;41.996;23.098;2022-10-19T02:45:49;0.43;;;0.30;;
37115;SDS011;23025;41.996;23.098;2022-10-19T02:48:17;2.45;;;1.98;;
37115;SDS011;23025;41.996;23.098;2022-10-19T02:50:45;0.90;;;0.75;;
37115;SDS011;23025;41.996;23.098;2022-10-19T02:53:13;0.68;;;0.68;;
37115;SDS011;23025;41.996;23.098;2022-10-19T02:55:41;1.67;;;1.27;;
37115;SDS011;23025;41.996;23.098;2022-10-19T02:58:07;0.68;;;0.68;;
37115;SDS011;23025;41.996;23.098;2022-10-19T03:00:34;0.52;;;0.45;;
37115;SDS011;23025;41.996;23.098;2022-10-19T03:03:01;1.35;;;1.13;;
37115;SDS011;23025;41.996;23.098;2022-10-19T03:05:27;0.38;;;0.38;;
37115;SDS011;23025;41.996;23.098;2022-10-19T03:07:54;0.35;;;0.32;;
37115;SDS011;23025;41.996;23.098;2022-10-19T03:10:20;0.38;;;0.22;;
37115;SDS011;23025;41.996;23.098;2022-10-19T03:12:48;2.00;;;1.90;;
37115;SDS011;23025;41.996;23.098;2022-10-19T03:15:15;0.55;;;0.55;;
37115;SDS011;23025;41.996;23.098;2022-10-19T03:17:41;0.82;;;0.80;;
37115;SDS011;23025;41.996;23.098;2022-10-19T03:20:08;1.52;;;1.42;;
37115;SDS011;23025;41.996;23.098;2022-10-19T03:22:35;0.88;;;0.88;;
37115;SDS011;23025;41.996;23.098;2022-10-19T03:25:02;0.40;;;0.30;;
37115;SDS011;23025;41.996;23.098;2022-10-19T03:27:29;0.60;;;0.60;;
37115;SDS011;23025;41.996;23.098;2022-10-19T03:29:56;2.33;;;2.08;;
37115;SDS011;23025;41.996;23.098;2022-10-19T03:32:23;0.45;;;0.30;;
37115;SDS011;23025;41.996;23.098;2022-10-19T03:34:49;0.60;;;0.52;;
37115;SDS011;23025;41.996;23.098;2022-10-19T03:37:16;2.10;;;1.95;;
37115;SDS011;23025;41.996;23.098;2022-10-19T03:39:42;1.17;;;1.10;;
37115;SDS011;23025;41.996;23.098;2022-10-19T03:42:09;0.82;;;0.82;;
37115;SDS011;23025;41.996;23.098;2022-10-19T03:44:35;0.77;;;0.77;;
37115;SDS011;23025;41.996;23.098;2022-10-19T03:47:03;1.05;;;0.82;;
37115;SDS011;23025;41.996;23.098;2022-10-19T03:49:30;0.35;;;0.17;;
37115;SDS011;23025;41.996;23.098;2022-10-19T03:51:56;1.45;;;1.38;;
37115;SDS011;23025;41.996;23.098;2022-10-19T03:54:23;0.38;;;0.28;;
37115;SDS011;23025;41.996;23.098;2022-10-19T03:56:49;0.90;;;0.90;;
37115;SDS011;23025;41.996;23.098;2022-10-19T03:59:15;0.30;;;0.10;;
37115;SDS011;23025;41.996;23.098;2022-10-19T04:01:43;3.40;;;1.33;;
37115;SDS011;23025;41.996;23.098;2022-10-19T04:04:11;0.75;;;0.35;;
37115;SDS011;23025;41.996;23.098;2022-10-19T04:06:39;0.63;;;0.43;;
37115;SDS011;23025;41.996;23.098;2022-10-19T04:09:07;0.88;;;0.85;;
37115;SDS011;23025;41.996;23.098;2022-10-19T04:11:34;2.85;;;2.75;;
37115;SDS011;23025;41.996;23.098;2022-10-19T04:14:00;0.50;;;0.47;;
37115;SDS011;23025;41.996;23.098;2022-10-19T04:16:27;0.50;;;0.50;;
37115;SDS011;23025;41.996;23.098;2022-10-19T04:18:54;0.73;;;0.73;;
37115;SDS011;23025;41.996;23.098;2022-10-19T04:21:23;1.58;;;1.48;;
37115;SDS011;23025;41.996;23.098;2022-10-19T04:23:50;0.52;;;0.50;;
37115;SDS011;23025;41.996;23.098;2022-10-19T04:26:17;0.93;;;0.93;;
37115;SDS011;23025;41.996;23.098;2022-10-19T04:28:44;0.85;;;0.85;;
37115;SDS011;23025;41.996;23.098;2022-10-19T04:31:10;0.85;;;0.52;;
37115;SDS011;23025;41.996;23.098;2022-10-19T04:33:37;0.82;;;0.82;;
37115;SDS011;23025;41.996;23.098;2022-10-19T04:36:04;0.40;;;0.30;;
37115;SDS011;23025;41.996;23.098;2022-10-19T04:38:33;0.28;;;0.15;;
37115;SDS011;23025;41.996;23.098;2022-10-19T04:41:00;6.13;;;0.90;;
37115;SDS011;23025;41.996;23.098;2022-10-19T04:43:27;0.82;;;0.80;;
37115;SDS011;23025;41.996;23.098;2022-10-19T04:45:53;1.45;;;1.35;;
37115;SDS011;23025;41.996;23.098;2022-10-19T04:48:20;0.45;;;0.22;;
37115;SDS011;23025;41.996;23.098;2022-10-19T04:50:47;2.28;;;2.05;;
37115;SDS011;23025;41.996;23.098;2022-10-19T04:53:13;1.13;;;0.93;;
37115;SDS011;23025;41.996;23.098;2022-10-19T04:55:41;1.08;;;0.98;;
37115;SDS011;23025;41.996;23.098;2022-10-19T04:58:08;1.75;;;1.65;;
37115;SDS011;23025;41.996;23.098;2022-10-19T05:00:36;2.08;;;1.92;;
37115;SDS011;23025;41.996;23.098;2022-10-19T05:03:03;12.18;;;1.52;;
37115;SDS011;23025;41.996;23.098;2022-10-19T05:05:30;0.88;;;0.63;;
37115;SDS011;23025;41.996;23.098;2022-10-19T05:07:56;1.58;;;1.27;;
37115;SDS011;23025;41.996;23.098;2022-10-19T05:10:23;3.05;;;2.10;;
37115;SDS011;23025;41.996;23.098;2022-10-19T05:12:51;2.72;;;2.55;;
37115;SDS011;23025;41.996;23.098;2022-10-19T05:15:17;0.98;;;0.73;;
37115;SDS011;23025;41.996;23.098;2022-10-19T05:17:44;1.77;;;0.88;;
37115;SDS011;23025;41.996;23.098;2022-10-19T05:20:10;1.27;;;1.17;;
37115;SDS011;23025;41.996;23.098;2022-10-19T05:22:37;1.05;;;0.95;;
37115;SDS011;23025;41.996;23.098;2022-10-19T05:25:04;1.13;;;0.90;;
37115;SDS011;23025;41.996;23.098;2022-10-19T05:27:30;1.00;;;1.00;;
37115;SDS011;23025;41.996;23.098;2022-10-19T05:29:58;1.30;;;0.85;;
37115;SDS011;23025;41.996;23.098;2022-10-19T05:32:25;1.15;;;1.05;;
37115;SDS011;23025;41.996;23.098;2022-10-19T05:34:52;2.08;;;1.90;;
37115;SDS011;23025;41.996;23.098;2022-10-19T05:37:18;1.13;;;1.02;;
37115;SDS011;23025;41.996;23.098;2022-10-19T05:39:45;3.03;;;2.05;;
37115;SDS011;23025;41.996;23.098;2022-10-19T05:42:12;3.75;;;1.13;;
37115;SDS011;23025;41.996;23.098;2022-10-19T05:44:38;1.40;;;1.30;;
37115;SDS011;23025;41.996;23.098;2022-10-19T05:47:06;1.65;;;0.75;;
37115;SDS011;23025;41.996;23.098;2022-10-19T05:49:33;0.55;;;0.55;;
37115;SDS011;23025;41.996;23.098;2022-10-19T05:51:59;2.03;;;1.92;;
37115;SDS011;23025;41.996;23.098;2022-10-19T05:54:26;0.50;;;0.30;;
37115;SDS011;23025;41.996;23.098;2022-10-19T05:56:52;0.50;;;0.30;;
37115;SDS011;23025;41.996;23.098;2022-10-19T05:59:19;0.88;;;0.88;;
37115;SDS011;23025;41.996;23.098;2022-10-19T06:01:46;2.90;;;2.40;;
37115;SDS011;23025;41.996;23.098;2022-10-19T06:04:14;0.45;;;0.15;;
37115;SDS011;23025;41.996;23.098;2022-10-19T06:06:41;1.80;;;1.67;;
37115;SDS011;23025;41.996;23.098;2022-10-19T06:09:08;2.03;;;1.75;;
37115;SDS011;23025;41.996;23.098;2022-10-19T06:11:35;1.63;;;1.52;;
37115;SDS011;23025;41.996;23.098;2022-10-19T06:14:04;0.80;;;0.68;;
37115;SDS011;23025;41.996;23.098;2022-10-19T06:16:31;2.92;;;2.63;;
37115;SDS011;23025;41.996;23.098;2022-10-19T06:18:58;1.77;;;1.42;;
37115;SDS011;23025;41.996;23.098;2022-10-19T06:21:26;0.50;;;0.35;;
37115;SDS011;23025;41.996;23.098;2022-10-19T06:23:54;3.25;;;2.20;;
37115;SDS011;23025;41.996;23.098;2022-10-19T06:26:21;1.73;;;1.23;;
37115;SDS011;23025;41.996;23.098;2022-10-19T06:28:48;0.38;;;0.38;;
37115;SDS011;23025;41.996;23.098;2022-10-19T06:31:14;1.35;;;1.25;;
37115;SDS011;23025;41.996;23.098;2022-10-19T06:33:42;2.10;;;1.75;;
37115;SDS011;23025;41.996;23.098;2022-10-19T06:36:09;2.38;;;1.60;;
37115;SDS011;23025;41.996;23.098;2022-10-19T06:38:37;1.33;;;1.02;;
37115;SDS011;23025;41.996;23.098;2022-10-19T06:41:04;1.67;;;1.58;;
37115;SDS011;23025;41.996;23.098;2022-10-19T06:43:31;3.53;;;1.83;;
37115;SDS011;23025;41.996;23.098;2022-10-19T06:45:58;1.38;;;1.27;;
37115;SDS011;23025;41.996;23.098;2022-10-19T06:48:24;1.60;;;1.50;;
37115;SDS011;23025;41.996;23.098;2022-10-19T06:50:54;3.20;;;2.92;;
37115;SDS011;23025;41.996;23.098;2022-10-19T06:53:21;1.25;;;0.82;;
37115;SDS011;23025;41.996;23.098;2022-10-19T06:55:49;1.10;;;1.10;;
37115;SDS011;23025;41.996;23.098;2022-10-19T06:58:15;1.40;;;1.35;;
37115;SDS011;23025;41.996;23.098;2022-10-19T07:00:42;0.85;;;0.75;;
37115;SDS011;23025;41.996;23.098;2022-10-19T07:03:08;2.83;;;2.63;;
37115;SDS011;23025;41.996;23.098;2022-10-19T07:05:35;0.73;;;0.73;;
37115;SDS011;23025;41.996;23.098;2022-10-19T07:08:01;2.13;;;2.03;;
37115;SDS011;23025;41.996;23.098;2022-10-19T07:10:28;1.50;;;1.40;;
37115;SDS011;23025;41.996;23.098;2022-10-19T07:12:56;1.85;;;1.75;;
37115;SDS011;23025;41.996;23.098;2022-10-19T07:15:22;2.47;;;2.28;;
37115;SDS011;23025;41.996;23.098;2022-10-19T07:17:49;2.17;;;1.98;;
37115;SDS011;23025;41.996;23.098;2022-10-19T07:20:15;1.80;;;1.70;;
37115;SDS011;23025;41.996;23.098;2022-10-19T07:22:42;0.95;;;0.93;;
37115;SDS011;23025;41.996;23.098;2022-10-19T07:25:08;2.33;;;2.13;;
37115;SDS011;23025;41.996;23.098;2022-10-19T07:27:35;1.33;;;1.23;;
37115;SDS011;23025;41.996;23.098;2022-10-19T07:30:05;0.90;;;0.90;;
37115;SDS011;23025;41.996;23.098;2022-10-19T07:32:32;0.25;;;0.22;;
37115;SDS011;23025;41.996;23.098;2022-10-19T07:34:58;2.38;;;2.28;;
37115;SDS011;23025;41.996;23.098;2022-10-19T07:37:25;1.83;;;1.73;;
37115;SDS011;23025;41.996;23.098;2022-10-19T07:39:51;1.50;;;1.40;;
37115;SDS011;23025;41.996;23.098;2022-10-19T07:42:18;2.28;;;2.15;;
37115;SDS011;23025;41.996;23.098;2022-10-19T07:44:44;1.77;;;1.67;;
37115;SDS011;23025;41.996;23.098;2022-10-19T07:47:12;1.88;;;1.77;;
37115;SDS011;23025;41.996;23.098;2022-10-19T07:49:39;1.83;;;1.70;;
37115;SDS011;23025;41.996;23.098;2022-10-19T07:52:05;1.95;;;1.85;;
37115;SDS011;23025;41.996;23.098;2022-10-19T07:54:32;4.60;;;3.35;;
37115;SDS011;23025;41.996;23.098;2022-10-19T07:56:58;2.38;;;1.48;;
37115;SDS011;23025;41.996;23.098;2022-10-19T07:59:25;1.35;;;1.25;;
37115;SDS011;23025;41.996;23.098;2022-10-19T08:01:51;2.42;;;1.95;;
37115;SDS011;23025;41.996;23.098;2022-10-19T08:04:20;1.38;;;0.77;;
37115;SDS011;23025;41.996;23.098;2022-10-19T08:06:46;2.05;;;1.95;;
37115;SDS011;23025;41.996;23.098;2022-10-19T08:09:13;1.80;;;1.70;;
37115;SDS011;23025;41.996;23.098;2022-10-19T08:11:39;2.67;;;2.25;;
37115;SDS011;23025;41.996;23.098;2022-10-19T08:14:06;1.00;;;0.98;;
37115;SDS011;23025;41.996;23.098;2022-10-19T08:16:33;1.95;;;1.70;;
37115;SDS011;23025;41.996;23.098;2022-10-19T08:19:02;1.13;;;1.02;;
37115;SDS011;23025;41.996;23.098;2022-10-19T08:21:31;3.25;;;3.05;;
37115;SDS011;23025;41.996;23.098;2022-10-19T08:23:58;1.48;;;1.23;;
37115;SDS011;23025;41.996;23.098;2022-10-19T08:26:27;1.20;;;1.10;;
37115;SDS011;23025;41.996;23.098;2022-10-19T08:28:57;2.17;;;2.08;;
37115;SDS011;23025;41.996;23.098;2022-10-19T08:31:24;2.20;;;1.88;;
37115;SDS011;23025;41.996;23.098;2022-10-19T08:33:50;2.42;;;2.25;;
37115;SDS011;23025;41.996;23.098;2022-10-19T08:36:17;1.63;;;1.40;;
37115;SDS011;23025;41.996;23.098;2022-10-19T08:38:47;1.42;;;1.08;;
37115;SDS011;23025;41.996;23.098;2022-10-19T08:41:17;1.02;;;1.02;;
37115;SDS011;23025;41.996;23.098;2022-10-19T08:43:49;2.75;;;2.03;;
37115;SDS011;23025;41.996;23.098;2022-10-19T08:46:21;2.03;;;1.92;;
37115;SDS011;23025;41.996;23.098;2022-10-19T08:48:50;2.60;;;2.40;;
37115;SDS011;23025;41.996;23.098;2022-10-19T08:51:17;2.70;;;2.45;;
37115;SDS011;23025;41.996;23.098;2022-10-19T08:53:45;1.17;;;1.10;;
37115;SDS011;23025;41.996;23.098;2022-10-19T08:56:19;1.33;;;1.25;;
37115;SDS011;23025;41.996;23.098;2022-10-19T08:58:52;4.80;;;2.30;;
37115;SDS011;23025;41.996;23.098;2022-10-19T09:01:23;2.53;;;2.33;;
37115;SDS011;23025;41.996;23.098;2022-10-19T09:03:55;6.82;;;6.50;;
37115;SDS011;23025;41.996;23.098;2022-10-19T09:06:25;1.35;;;1.25;;
37115;SDS011;23025;41.996;23.098;2022-10-19T09:08:54;1.35;;;1.20;;
37115;SDS011;23025;41.996;23.098;2022-10-19T09:11:24;1.30;;;1.20;;
37115;SDS011;23025;41.996;23.098;2022-10-19T09:13:54;4.65;;;1.92;;
37115;SDS011;23025;41.996;23.098;2022-10-19T09:16:23;2.22;;;1.98;;
37115;SDS011;23025;41.996;23.098;2022-10-19T09:18:50;2.10;;;2.00;;
37115;SDS011;23025;41.996;23.098;2022-10-19T09:21:17;2.38;;;2.28;;
37115;SDS011;23025;41.996;23.098;2022-10-19T09:23:46;3.25;;;1.77;;
37115;SDS011;23025;41.996;23.098;2022-10-19T09:26:17;2.08;;;1.98;;
37115;SDS011;23025;41.996;23.098;2022-10-19T09:28:46;3.10;;;2.80;;
37115;SDS011;23025;41.996;23.098;2022-10-19T09:31:14;2.95;;;2.67;;
37115;SDS011;23025;41.996;23.098;2022-10-19T09:33:43;3.17;;;2.45;;
37115;SDS011;23025;41.996;23.098;2022-10-19T09:36:12;3.88;;;3.00;;
37115;SDS011;23025;41.996;23.098;2022-10-19T09:38:39;2.08;;;1.98;;
37115;SDS011;23025;41.996;23.098;2022-10-19T09:41:13;4.40;;;4.18;;
37115;SDS011;23025;41.996;23.098;2022-10-19T09:43:42;4.32;;;3.05;;
37115;SDS011;23025;41.996;23.098;2022-10-19T09:46:11;3.78;;;3.47;;
37115;SDS011;23025;41.996;23.098;2022-10-19T09:51:09;3.40;;;2.25;;
37115;SDS011;23025;41.996;23.098;2022-10-19T09:53:36;3.20;;;2.88;;
37115;SDS011;23025;41.996;23.098;2022-10-19T09:56:03;2.47;;;2.33;;
37115;SDS011;23025;41.996;23.098;2022-10-19T09:58:31;3.42;;;3.20;;
37115;SDS011;23025;41.996;23.098;2022-10-19T10:00:58;2.55;;;1.98;;
37115;SDS011;23025;41.996;23.098;2022-10-19T10:03:27;3.85;;;3.53;;
37115;SDS011;23025;41.996;23.098;2022-10-19T10:05:54;3.53;;;3.30;;
37115;SDS011;23025;41.996;23.098;2022-10-19T10:08:23;3.17;;;2.97;;
37115;SDS011;23025;41.996;23.098;2022-10-19T10:10:55;3.35;;;3.05;;
37115;SDS011;23025;41.996;23.098;2022-10-19T10:13:23;2.50;;;2.30;;
37115;SDS011;23025;41.996;23.098;2022-10-19T10:15:50;4.97;;;4.57;;
37115;SDS011;23025;41.996;23.098;2022-10-19T10:18:19;3.67;;;3.30;;
37115;SDS011;23025;41.996;23.098;2022-10-19T10:20:56;3.45;;;3.25;;
37115;SDS011;23025;41.996;23.098;2022-10-19T10:23:24;2.50;;;2.35;;
37115;SDS011;23025;41.996;23.098;2022-10-19T10:25:53;6.90;;;4.38;;
37115;SDS011;23025;41.996;23.098;2022-10-19T10:28:20;3.90;;;3.60;;
37115;SDS011;23025;41.996;23.098;2022-10-19T10:30:47;4.35;;;3.95;;
37115;SDS011;23025;41.996;23.098;2022-10-19T10:35:46;3.72;;;3.25;;
37115;SDS011;23025;41.996;23.098;2022-10-19T10:38:16;3.80;;;2.97;;
37115;SDS011;23025;41.996;23.098;2022-10-19T10:40:48;4.13;;;2.75;;
37115;SDS011;23025;41.996;23.098;2022-10-19T10:43:15;7.93;;;2.83;;
37115;SDS011;23025;41.996;23.098;2022-10-19T10:45:44;5.10;;;3.45;;
37115;SDS011;23025;41.996;23.098;2022-10-19T10:48:17;4.32;;;4.03;;
37115;SDS011;23025;41.996;23.098;2022-10-19T10:50:45;3.65;;;3.35;;
37115;SDS011;23025;41.996;23.098;2022-10-19T10:55:55;3.42;;;3.13;;
37115;SDS011;23025;41.996;23.098;2022-10-19T10:58:23;3.15;;;2.88;;
37115;SDS011;23025;41.996;23.098;2022-10-19T11:00:55;3.13;;;2.83;;
37115;SDS011;23025;41.996;23.098;2022-10-19T11:03:24;8.15;;;5.43;;
37115;SDS011;23025;41.996;23.098;2022-10-19T11:05:53;5.22;;;4.18;;
37115;SDS011;23025;41.996;23.098;2022-10-19T11:08:21;3.30;;;3.00;;
37115;SDS011;23025;41.996;23.098;2022-10-19T11:10:50;2.92;;;2.83;;
37115;SDS011;23025;41.996;23.098;2022-10-19T11:15:49;3.97;;;3.58;;
37115;SDS011;23025;41.996;23.098;2022-10-19T11:18:18;2.95;;;2.65;;
37115;SDS011;23025;41.996;23.098;2022-10-19T11:20:48;4.05;;;3.65;;
37115;SDS011;23025;41.996;23.098;2022-10-19T11:23:19;5.32;;;5.00;;
37115;SDS011;23025;41.996;23.098;2022-10-19T11:25:51;5.90;;;5.40;;
37115;SDS011;23025;41.996;23.098;2022-10-19T11:28:29;5.43;;;4.95;;
37115;SDS011;23025;41.996;23.098;2022-10-19T11:31:04;5.25;;;4.75;;
37115;SDS011;23025;41.996;23.098;2022-10-19T11:33:36;3.85;;;3.55;;
37115;SDS011;23025;41.996;23.098;2022-10-19T11:36:06;3.95;;;3.65;;
37115;SDS011;23025;41.996;23.098;2022-10-19T11:38:39;7.07;;;6.50;;
37115;SDS011;23025;41.996;23.098;2022-10-19T11:41:11;3.88;;;3.50;;
37115;SDS011;23025;41.996;23.098;2022-10-19T11:43:43;4.95;;;4.55;;
37115;SDS011;23025;41.996;23.098;2022-10-19T11:46:16;3.92;;;3.63;;
37115;SDS011;23025;41.996;23.098;2022-10-19T11:51:32;4.93;;;3.95;;
37115;SDS011;23025;41.996;23.098;2022-10-19T11:54:03;5.32;;;4.60;;
37115;SDS011;23025;41.996;23.098;2022-10-19T11:56:35;3.42;;;3.13;;
37115;SDS011;23025;41.996;23.098;2022-10-19T11:59:05;4.43;;;4.13;;
37115;SDS011;23025;41.996;23.098;2022-10-19T12:01:44;4.50;;;4.10;;
37115;SDS011;23025;41.996;23.098;2022-10-19T12:04:17;6.10;;;4.47;;
37115;SDS011;23025;41.996;23.098;2022-10-19T12:06:48;6.50;;;5.90;;
37115;SDS011;23025;41.996;23.098;2022-10-19T12:09:22;3.97;;;3.78;;
37115;SDS011;23025;41.996;23.098;2022-10-19T12:11:54;4.40;;;3.63;;
37115;SDS011;23025;41.996;23.098;2022-10-19T12:14:27;3.75;;;3.42;;
37115;SDS011;23025;41.996;23.098;2022-10-19T12:16:58;5.13;;;4.68;;
37115;SDS011;23025;41.996;23.098;2022-10-19T12:19:28;4.22;;;4.00;;
37115;SDS011;23025;41.996;23.098;2022-10-19T12:21:57;4.93;;;4.05;;
37115;SDS011;23025;41.996;23.098;2022-10-19T12:24:24;4.38;;;3.97;;
37115;SDS011;23025;41.996;23.098;2022-10-19T12:26:55;6.28;;;4.95;;
37115;SDS011;23025;41.996;23.098;2022-10-19T12:29:22;3.05;;;2.83;;
37115;SDS011;23025;41.996;23.098;2022-10-19T12:31:50;6.57;;;5.97;;
37115;SDS011;23025;41.996;23.098;2022-10-19T12:34:21;4.60;;;4.30;;
37115;SDS011;23025;41.996;23.098;2022-10-19T12:36:51;6.53;;;6.13;;
37115;SDS011;23025;41.996;23.098;2022-10-19T12:39:21;5.72;;;4.70;;
37115;SDS011;23025;41.996;23.098;2022-10-19T12:41:50;7.28;;;4.80;;
37115;SDS011;23025;41.996;23.098;2022-10-19T12:44:21;5.63;;;3.70;;
37115;SDS011;23025;41.996;23.098;2022-10-19T12:46:50;5.97;;;5.38;;
37115;SDS011;23025;41.996;23.098;2022-10-19T12:49:35;4.47;;;4.07;;
37115;SDS011;23025;41.996;23.098;2022-10-19T12:52:02;4.97;;;4.63;;
37115;SDS011;23025;41.996;23.098;2022-10-19T12:54:32;5.10;;;4.75;;
37115;SDS011;23025;41.996;23.098;2022-10-19T12:57:00;6.65;;;6.20;;
37115;SDS011;23025;41.996;23.098;2022-10-19T12:59:28;3.97;;;3.70;;
37115;SDS011;23025;41.996;23.098;2022-10-19T13:01:55;6.28;;;3.05;;
37115;SDS011;23025;41.996;23.098;2022-10-19T13:04:22;3.95;;;3.67;;
37115;SDS011;23025;41.996;23.098;2022-10-19T13:06:57;4.90;;;4.53;;
37115;SDS011;23025;41.996;23.098;2022-10-19T13:09:25;6.45;;;5.97;;
37115;SDS011;23025;41.996;23.098;2022-10-19T13:14:42;4.60;;;4.25;;
37115;SDS011;23025;41.996;23.098;2022-10-19T13:17:10;3.33;;;2.88;;
37115;SDS011;23025;41.996;23.098;2022-10-19T13:22:39;5.05;;;4.55;;
37115;SDS011;23025;41.996;23.098;2022-10-19T13:25:22;4.78;;;4.38;;
37115;SDS011;23025;41.996;23.098;2022-10-19T13:27:51;5.60;;;5.30;;
37115;SDS011;23025;41.996;23.098;2022-10-19T13:35:44;3.45;;;3.25;;
37115;SDS011;23025;41.996;23.098;2022-10-19T13:38:25;3.67;;;3.13;;
37115;SDS011;23025;41.996;23.098;2022-10-19T13:40:55;4.72;;;3.97;;
37115;SDS011;23025;41.996;23.098;2022-10-19T13:43:24;3.42;;;3.22;;
37115;SDS011;23025;41.996;23.098;2022-10-19T13:45:52;4.50;;;4.20;;
37115;SDS011;23025;41.996;23.098;2022-10-19T13:48:20;3.35;;;3.05;;
37115;SDS011;23025;41.996;23.098;2022-10-19T13:50:49;5.55;;;5.05;;
37115;SDS011;23025;41.996;23.098;2022-10-19T13:53:22;4.97;;;4.38;;
37115;SDS011;23025;41.996;23.098;2022-10-19T14:01:40;6.18;;;5.75;;
37115;SDS011;23025;41.996;23.098;2022-10-19T14:06:53;4.10;;;3.80;;
37115;SDS011;23025;41.996;23.098;2022-10-19T14:12:07;6.15;;;5.75;;
37115;SDS011;23025;41.996;23.098;2022-10-19T14:14:39;4.97;;;4.57;;
37115;SDS011;23025;41.996;23.098;2022-10-19T14:17:17;5.45;;;5.15;;
37115;SDS011;23025;41.996;23.098;2022-10-19T14:19:45;5.53;;;5.03;;
37115;SDS011;23025;41.996;23.098;2022-10-19T14:22:25;4.93;;;4.63;;
37115;SDS011;23025;41.996;23.098;2022-10-19T14:24:58;5.97;;;4.70;;
37115;SDS011;23025;41.996;23.098;2022-10-19T14:27:25;5.25;;;4.93;;
37115;SDS011;23025;41.996;23.098;2022-10-19T14:29:52;4.47;;;4.18;;
37115;SDS011;23025;41.996;23.098;2022-10-19T14:32:21;3.35;;;3.03;;
37115;SDS011;23025;41.996;23.098;2022-10-19T14:34:49;4.93;;;4.50;;
37115;SDS011;23025;41.996;23.098;2022-10-19T14:37:16;4.10;;;3.45;;
37115;SDS011;23025;41.996;23.098;2022-10-19T14:39:47;5.90;;;5.50;;
37115;SDS011;23025;41.996;23.098;2022-10-19T14:42:22;4.55;;;4.25;;
37115;SDS011;23025;41.996;23.098;2022-10-19T14:44:48;3.83;;;2.92;;
37115;SDS011;23025;41.996;23.098;2022-10-19T14:47:16;5.50;;;4.00;;
37115;SDS011;23025;41.996;23.098;2022-10-19T14:49:44;5.95;;;4.82;;
37115;SDS011;23025;41.996;23.098;2022-10-19T14:52:11;4.13;;;3.83;;
37115;SDS011;23025;41.996;23.098;2022-10-19T14:54:41;4.13;;;3.75;;
37115;SDS011;23025;41.996;23.098;2022-10-19T14:57:10;6.32;;;4.32;;
37115;SDS011;23025;41.996;23.098;2022-10-19T14:59:38;5.07;;;3.47;;
37115;SDS011;23025;41.996;23.098;2022-10-19T15:02:11;4.18;;;3.60;;
37115;SDS011;23025;41.996;23.098;2022-10-19T15:04:40;6.78;;;6.28;;
37115;SDS011;23025;41.996;23.098;2022-10-19T15:07:14;3.60;;;3.30;;
37115;SDS011;23025;41.996;23.098;2022-10-19T15:09:42;4.45;;;3.35;;
37115;SDS011;23025;41.996;23.098;2022-10-19T15:12:13;4.75;;;4.35;;
37115;SDS011;23025;41.996;23.098;2022-10-19T15:14:41;3.80;;;3.20;;
37115;SDS011;23025;41.996;23.098;2022-10-19T15:17:19;3.15;;;2.95;;
37115;SDS011;23025;41.996;23.098;2022-10-19T15:19:46;1.90;;;1.80;;